Terminal Aerodrome Forecast
Issued by NWS

Home | Current Version | Previous Version | Text Only | Print | Product List | Glossary On
Versions: 1 2 3 4 5 6 7 8 9 10 11 12 13 14 15 16 17 18 19 20 21 22 23 24 25 26 27
000
FTUS41 KBOX 300527
TAFFMH
TAF
KFMH 300527Z 3006/0106 02004KT 2SM -DZ BR OVC003
     FM301000 02004KT 1/2SM FG OVC003
     FM301200 03005KT 3SM BR OVC003
     FM301500 03007KT P6SM OVC015
     FM301800 03008KT P6SM OVC025
     FM302100 04008KT P6SM OVC015=

USA.gov is the U.S. government's official web portal to all federal, state and local government web resources and services.